sensor_id;sensor_type;location;lat;lon;timestamp;pressure;altitude;pressure_sealevel;temperature;humidity
11523;BME280;70090;43.208;27.904;2023-05-22T00:01:06;100572.88;;;19.07;74.06
11523;BME280;70090;43.208;27.904;2023-05-22T00:03:33;100575.59;;;19.10;74.18
11523;BME280;70090;43.208;27.904;2023-05-22T00:06:01;100574.53;;;19.04;74.42
11523;BME280;70090;43.208;27.904;2023-05-22T00:08:29;100581.47;;;18.96;75.16
11523;BME280;70090;43.208;27.904;2023-05-22T00:10:56;100579.81;;;18.99;75.24
11523;BME280;70090;43.208;27.904;2023-05-22T00:13:22;100582.19;;;19.00;75.35
11523;BME280;70090;43.208;27.904;2023-05-22T00:15:49;100581.25;;;19.07;75.54
11523;BME280;70090;43.208;27.904;2023-05-22T00:18:16;100570.88;;;19.07;75.59
11523;BME280;70090;43.208;27.904;2023-05-22T00:20:43;100561.88;;;19.00;76.30
11523;BME280;70090;43.208;27.904;2023-05-22T00:23:11;100568.66;;;18.99;76.82
11523;BME280;70090;43.208;27.904;2023-05-22T00:25:39;100571.09;;;18.97;77.05
11523;BME280;70090;43.208;27.904;2023-05-22T00:28:06;100571.72;;;19.04;77.16
11523;BME280;70090;43.208;27.904;2023-05-22T00:30:33;100568.38;;;19.13;76.87
11523;BME280;70090;43.208;27.904;2023-05-22T00:33:00;100557.91;;;19.17;76.89
11523;BME280;70090;43.208;27.904;2023-05-22T00:35:28;100555.84;;;19.21;77.32
11523;BME280;70090;43.208;27.904;2023-05-22T00:37:55;100562.66;;;19.20;78.42
11523;BME280;70090;43.208;27.904;2023-05-22T00:40:21;100557.00;;;19.23;78.50
11523;BME280;70090;43.208;27.904;2023-05-22T00:42:50;100553.78;;;19.25;78.44
11523;BME280;70090;43.208;27.904;2023-05-22T00:45:16;100554.78;;;19.15;78.76
11523;BME280;70090;43.208;27.904;2023-05-22T00:47:43;100565.81;;;19.02;79.60
11523;BME280;70090;43.208;27.904;2023-05-22T00:50:10;100563.25;;;18.92;80.67
11523;BME280;70090;43.208;27.904;2023-05-22T00:52:40;100551.47;;;18.84;81.85
11523;BME280;70090;43.208;27.904;2023-05-22T00:55:09;100563.38;;;18.85;81.93
11523;BME280;70090;43.208;27.904;2023-05-22T00:57:37;100551.53;;;18.81;82.46
11523;BME280;70090;43.208;27.904;2023-05-22T01:00:08;100569.25;;;18.71;83.13
11523;BME280;70090;43.208;27.904;2023-05-22T01:02:36;100565.03;;;18.63;83.92
11523;BME280;70090;43.208;27.904;2023-05-22T01:05:05;100564.03;;;18.53;84.85
11523;BME280;70090;43.208;27.904;2023-05-22T01:07:32;100555.41;;;18.48;85.56
11523;BME280;70090;43.208;27.904;2023-05-22T01:10:02;100562.25;;;18.43;86.62
11523;BME280;70090;43.208;27.904;2023-05-22T01:12:36;100552.09;;;18.53;86.33
11523;BME280;70090;43.208;27.904;2023-05-22T01:15:12;100555.81;;;18.66;85.92
11523;BME280;70090;43.208;27.904;2023-05-22T01:17:46;100553.38;;;18.68;85.98
11523;BME280;70090;43.208;27.904;2023-05-22T01:20:22;100553.31;;;18.71;85.65
11523;BME280;70090;43.208;27.904;2023-05-22T01:26:30;100559.03;;;18.84;85.79
11523;BME280;70090;43.208;27.904;2023-05-22T01:32:19;100574.78;;;18.74;86.41
11523;BME280;70090;43.208;27.904;2023-05-22T01:34:51;100571.34;;;18.86;85.77
11523;BME280;70090;43.208;27.904;2023-05-22T01:37:19;100559.72;;;18.88;85.48
11523;BME280;70090;43.208;27.904;2023-05-22T01:39:47;100584.00;;;18.91;85.07
11523;BME280;70090;43.208;27.904;2023-05-22T01:42:16;100578.75;;;18.73;86.42
11523;BME280;70090;43.208;27.904;2023-05-22T01:44:43;100573.97;;;18.74;86.31
11523;BME280;70090;43.208;27.904;2023-05-22T01:47:10;100570.97;;;18.65;86.70
11523;BME280;70090;43.208;27.904;2023-05-22T01:49:39;100567.25;;;18.52;87.44
11523;BME280;70090;43.208;27.904;2023-05-22T01:52:09;100574.03;;;18.31;88.91
11523;BME280;70090;43.208;27.904;2023-05-22T01:54:44;100567.88;;;18.17;89.77
11523;BME280;70090;43.208;27.904;2023-05-22T01:57:18;100572.88;;;18.06;90.99
11523;BME280;70090;43.208;27.904;2023-05-22T01:59:48;100574.78;;;17.86;93.02
11523;BME280;70090;43.208;27.904;2023-05-22T02:02:20;100573.09;;;17.92;93.17
11523;BME280;70090;43.208;27.904;2023-05-22T02:04:54;100563.31;;;17.84;94.15
11523;BME280;70090;43.208;27.904;2023-05-22T02:07:22;100566.50;;;17.82;94.48
11523;BME280;70090;43.208;27.904;2023-05-22T02:09:51;100565.63;;;17.85;94.77
11523;BME280;70090;43.208;27.904;2023-05-22T02:12:19;100568.88;;;17.84;94.94
11523;BME280;70090;43.208;27.904;2023-05-22T02:14:47;100570.44;;;17.85;95.79
11523;BME280;70090;43.208;27.904;2023-05-22T02:17:14;100563.97;;;17.91;96.12
11523;BME280;70090;43.208;27.904;2023-05-22T02:19:42;100563.31;;;17.84;96.55
11523;BME280;70090;43.208;27.904;2023-05-22T02:22:10;100568.91;;;18.03;95.83
11523;BME280;70090;43.208;27.904;2023-05-22T02:24:39;100570.28;;;18.15;94.93
11523;BME280;70090;43.208;27.904;2023-05-22T02:27:07;100564.31;;;18.16;94.52
11523;BME280;70090;43.208;27.904;2023-05-22T02:29:33;100567.41;;;17.99;95.50
11523;BME280;70090;43.208;27.904;2023-05-22T02:32:00;100566.03;;;18.10;94.58
11523;BME280;70090;43.208;27.904;2023-05-22T02:34:28;100568.66;;;18.17;93.84
11523;BME280;70090;43.208;27.904;2023-05-22T02:36:56;100574.88;;;18.25;93.37
11523;BME280;70090;43.208;27.904;2023-05-22T02:39:25;100567.03;;;18.20;93.46
11523;BME280;70090;43.208;27.904;2023-05-22T02:41:52;100558.38;;;18.14;93.76
11523;BME280;70090;43.208;27.904;2023-05-22T02:44:19;100564.25;;;17.97;93.94
11523;BME280;70090;43.208;27.904;2023-05-22T02:46:46;100563.59;;;17.89;94.62
11523;BME280;70090;43.208;27.904;2023-05-22T02:49:13;100553.75;;;17.85;95.18
11523;BME280;70090;43.208;27.904;2023-05-22T02:51:40;100554.25;;;17.76;95.64
11523;BME280;70090;43.208;27.904;2023-05-22T02:54:13;100555.06;;;17.77;95.84
11523;BME280;70090;43.208;27.904;2023-05-22T02:56:41;100563.88;;;17.72;97.15
11523;BME280;70090;43.208;27.904;2023-05-22T02:59:08;100567.16;;;17.67;97.62
11523;BME280;70090;43.208;27.904;2023-05-22T03:01:35;100562.38;;;17.67;97.83
11523;BME280;70090;43.208;27.904;2023-05-22T03:04:03;100561.47;;;17.74;96.75
11523;BME280;70090;43.208;27.904;2023-05-22T03:06:30;100561.69;;;17.60;98.59
11523;BME280;70090;43.208;27.904;2023-05-22T03:08:56;100565.19;;;17.41;100.00
11523;BME280;70090;43.208;27.904;2023-05-22T03:11:23;100560.22;;;17.26;100.00
11523;BME280;70090;43.208;27.904;2023-05-22T03:13:51;100556.19;;;17.30;100.00
11523;BME280;70090;43.208;27.904;2023-05-22T03:16:18;100571.38;;;17.52;100.00
11523;BME280;70090;43.208;27.904;2023-05-22T03:18:45;100562.53;;;17.57;100.00
11523;BME280;70090;43.208;27.904;2023-05-22T03:21:12;100556.25;;;17.53;100.00
11523;BME280;70090;43.208;27.904;2023-05-22T03:23:38;100558.63;;;17.51;100.00
11523;BME280;70090;43.208;27.904;2023-05-22T03:26:05;100561.28;;;17.35;100.00
11523;BME280;70090;43.208;27.904;2023-05-22T03:28:32;100556.41;;;17.43;100.00
11523;BME280;70090;43.208;27.904;2023-05-22T03:31:00;100567.16;;;17.41;100.00
11523;BME280;70090;43.208;27.904;2023-05-22T03:33:27;100557.66;;;17.35;100.00
11523;BME280;70090;43.208;27.904;2023-05-22T03:35:54;100568.41;;;17.36;100.00
11523;BME280;70090;43.208;27.904;2023-05-22T03:38:21;100562.00;;;17.39;100.00
11523;BME280;70090;43.208;27.904;2023-05-22T03:40:48;100566.00;;;17.38;100.00
11523;BME280;70090;43.208;27.904;2023-05-22T03:43:15;100561.22;;;16.79;100.00
11523;BME280;70090;43.208;27.904;2023-05-22T03:45:42;100557.13;;;16.90;100.00
11523;BME280;70090;43.208;27.904;2023-05-22T03:48:10;100555.91;;;16.91;100.00
11523;BME280;70090;43.208;27.904;2023-05-22T03:50:37;100562.31;;;16.88;100.00
11523;BME280;70090;43.208;27.904;2023-05-22T03:53:04;100564.91;;;17.02;100.00
11523;BME280;70090;43.208;27.904;2023-05-22T03:55:31;100570.16;;;17.23;100.00
11523;BME280;70090;43.208;27.904;2023-05-22T03:57:58;100574.78;;;17.37;100.00
11523;BME280;70090;43.208;27.904;2023-05-22T04:00:24;100569.63;;;17.05;100.00
11523;BME280;70090;43.208;27.904;2023-05-22T04:02:51;100569.81;;;16.91;100.00
11523;BME280;70090;43.208;27.904;2023-05-22T04:05:20;100569.94;;;16.81;100.00
11523;BME280;70090;43.208;27.904;2023-05-22T04:07:47;100577.78;;;16.89;100.00
11523;BME280;70090;43.208;27.904;2023-05-22T04:10:14;100568.72;;;17.12;100.00
11523;BME280;70090;43.208;27.904;2023-05-22T04:12:40;100567.03;;;17.21;100.00
11523;BME280;70090;43.208;27.904;2023-05-22T04:15:08;100568.31;;;17.43;100.00
11523;BME280;70090;43.208;27.904;2023-05-22T04:17:38;100567.38;;;17.23;100.00
11523;BME280;70090;43.208;27.904;2023-05-22T04:20:06;100564.69;;;17.46;100.00
11523;BME280;70090;43.208;27.904;2023-05-22T04:22:35;100572.41;;;17.62;100.00
11523;BME280;70090;43.208;27.904;2023-05-22T04:25:03;100568.03;;;17.61;100.00
11523;BME280;70090;43.208;27.904;2023-05-22T04:27:30;100570.13;;;17.79;100.00
11523;BME280;70090;43.208;27.904;2023-05-22T04:29:57;100573.63;;;18.06;100.00
11523;BME280;70090;43.208;27.904;2023-05-22T04:32:24;100568.91;;;17.80;100.00
11523;BME280;70090;43.208;27.904;2023-05-22T04:34:51;100573.94;;;17.89;100.00
11523;BME280;70090;43.208;27.904;2023-05-22T04:37:18;100562.84;;;17.85;100.00
11523;BME280;70090;43.208;27.904;2023-05-22T04:39:46;100569.34;;;17.79;100.00
11523;BME280;70090;43.208;27.904;2023-05-22T04:42:17;100569.84;;;17.97;100.00
11523;BME280;70090;43.208;27.904;2023-05-22T04:44:44;100568.81;;;18.10;100.00
11523;BME280;70090;43.208;27.904;2023-05-22T04:47:12;100572.00;;;18.09;100.00
11523;BME280;70090;43.208;27.904;2023-05-22T04:49:39;100574.06;;;18.05;100.00
11523;BME280;70090;43.208;27.904;2023-05-22T04:52:06;100573.34;;;18.01;100.00
11523;BME280;70090;43.208;27.904;2023-05-22T04:54:36;100577.69;;;18.02;100.00
11523;BME280;70090;43.208;27.904;2023-05-22T04:57:04;100576.13;;;18.01;100.00
11523;BME280;70090;43.208;27.904;2023-05-22T04:59:32;100575.03;;;18.18;100.00
11523;BME280;70090;43.208;27.904;2023-05-22T05:02:02;100574.53;;;18.23;100.00
11523;BME280;70090;43.208;27.904;2023-05-22T05:04:29;100577.59;;;18.32;100.00
11523;BME280;70090;43.208;27.904;2023-05-22T05:06:56;100573.69;;;18.49;100.00
11523;BME280;70090;43.208;27.904;2023-05-22T05:09:23;100574.28;;;18.14;100.00
11523;BME280;70090;43.208;27.904;2023-05-22T05:11:50;100585.59;;;18.30;100.00
11523;BME280;70090;43.208;27.904;2023-05-22T05:14:19;100579.44;;;18.38;100.00
11523;BME280;70090;43.208;27.904;2023-05-22T05:16:45;100571.25;;;18.51;100.00
11523;BME280;70090;43.208;27.904;2023-05-22T05:19:12;100582.13;;;18.65;100.00
11523;BME280;70090;43.208;27.904;2023-05-22T05:21:39;100578.13;;;18.66;100.00
11523;BME280;70090;43.208;27.904;2023-05-22T05:24:06;100580.13;;;18.85;100.00
11523;BME280;70090;43.208;27.904;2023-05-22T05:26:33;100575.75;;;19.03;100.00
11523;BME280;70090;43.208;27.904;2023-05-22T05:29:00;100572.38;;;19.12;100.00
11523;BME280;70090;43.208;27.904;2023-05-22T05:31:28;100570.19;;;19.39;100.00
11523;BME280;70090;43.208;27.904;2023-05-22T05:33:55;100570.88;;;19.43;100.00
11523;BME280;70090;43.208;27.904;2023-05-22T05:36:23;100567.75;;;19.41;100.00
11523;BME280;70090;43.208;27.904;2023-05-22T05:38:50;100555.09;;;19.36;100.00
11523;BME280;70090;43.208;27.904;2023-05-22T05:41:18;100572.38;;;19.12;100.00
11523;BME280;70090;43.208;27.904;2023-05-22T05:43:45;100567.94;;;19.34;100.00
11523;BME280;70090;43.208;27.904;2023-05-22T05:46:12;100572.56;;;19.56;100.00
11523;BME280;70090;43.208;27.904;2023-05-22T05:48:40;100572.59;;;19.72;100.00
11523;BME280;70090;43.208;27.904;2023-05-22T05:51:08;100573.19;;;19.64;100.00
11523;BME280;70090;43.208;27.904;2023-05-22T05:53:35;100577.47;;;19.68;100.00
11523;BME280;70090;43.208;27.904;2023-05-22T05:56:02;100580.63;;;19.70;100.00
11523;BME280;70090;43.208;27.904;2023-05-22T05:58:29;100579.66;;;19.61;100.00
11523;BME280;70090;43.208;27.904;2023-05-22T06:00:56;100577.72;;;19.58;100.00
11523;BME280;70090;43.208;27.904;2023-05-22T06:03:22;100579.75;;;19.73;100.00
11523;BME280;70090;43.208;27.904;2023-05-22T06:05:52;100588.22;;;19.70;100.00
11523;BME280;70090;43.208;27.904;2023-05-22T06:08:18;100589.28;;;19.76;100.00
11523;BME280;70090;43.208;27.904;2023-05-22T06:10:46;100596.22;;;19.84;100.00
11523;BME280;70090;43.208;27.904;2023-05-22T06:13:13;100597.41;;;20.02;100.00
11523;BME280;70090;43.208;27.904;2023-05-22T06:15:40;100588.84;;;20.25;100.00
11523;BME280;70090;43.208;27.904;2023-05-22T06:18:06;100589.34;;;20.36;100.00
11523;BME280;70090;43.208;27.904;2023-05-22T06:20:33;100595.69;;;20.52;98.21
11523;BME280;70090;43.208;27.904;2023-05-22T06:23:01;100591.59;;;20.69;96.27
11523;BME280;70090;43.208;27.904;2023-05-22T06:25:28;100581.06;;;20.89;95.28
11523;BME280;70090;43.208;27.904;2023-05-22T06:27:55;100593.56;;;21.13;93.86
11523;BME280;70090;43.208;27.904;2023-05-22T06:30:22;100589.94;;;21.00;93.58
11523;BME280;70090;43.208;27.904;2023-05-22T06:32:49;100598.31;;;20.72;95.87
11523;BME280;70090;43.208;27.904;2023-05-22T06:35:16;100592.53;;;20.79;96.41
11523;BME280;70090;43.208;27.904;2023-05-22T06:37:43;100588.41;;;20.83;95.16
11523;BME280;70090;43.208;27.904;2023-05-22T06:40:12;100595.00;;;21.05;93.67
11523;BME280;70090;43.208;27.904;2023-05-22T06:42:38;100592.44;;;21.23;92.75
11523;BME280;70090;43.208;27.904;2023-05-22T06:45:06;100589.00;;;21.32;90.63
11523;BME280;70090;43.208;27.904;2023-05-22T06:47:33;100589.44;;;21.30;89.08
11523;BME280;70090;43.208;27.904;2023-05-22T06:50:00;100587.75;;;21.33;89.30
11523;BME280;70090;43.208;27.904;2023-05-22T06:52:27;100587.41;;;21.18;89.64
11523;BME280;70090;43.208;27.904;2023-05-22T06:54:54;100590.19;;;21.18;90.09
11523;BME280;70090;43.208;27.904;2023-05-22T06:57:29;100590.81;;;20.97;91.39
11523;BME280;70090;43.208;27.904;2023-05-22T06:59:56;100596.09;;;20.95;91.03
11523;BME280;70090;43.208;27.904;2023-05-22T07:02:23;100586.84;;;21.23;89.63
11523;BME280;70090;43.208;27.904;2023-05-22T07:04:50;100582.03;;;21.24;89.02
11523;BME280;70090;43.208;27.904;2023-05-22T07:07:17;100581.94;;;21.27;89.15
11523;BME280;70090;43.208;27.904;2023-05-22T07:09:44;100588.19;;;21.31;89.21
11523;BME280;70090;43.208;27.904;2023-05-22T07:12:11;100585.06;;;21.54;86.60
11523;BME280;70090;43.208;27.904;2023-05-22T07:14:40;100579.94;;;21.65;87.64
11523;BME280;70090;43.208;27.904;2023-05-22T07:17:07;100573.31;;;21.84;85.29
11523;BME280;70090;43.208;27.904;2023-05-22T07:19:34;100581.94;;;22.02;84.61
11523;BME280;70090;43.208;27.904;2023-05-22T07:22:01;100584.72;;;22.15;82.86
11523;BME280;70090;43.208;27.904;2023-05-22T07:24:27;100587.31;;;22.09;82.63
11523;BME280;70090;43.208;27.904;2023-05-22T07:26:54;100581.50;;;21.91;82.50
11523;BME280;70090;43.208;27.904;2023-05-22T07:29:21;100582.63;;;21.94;82.84
11523;BME280;70090;43.208;27.904;2023-05-22T07:31:49;100576.66;;;22.38;81.08
11523;BME280;70090;43.208;27.904;2023-05-22T07:34:16;100575.81;;;22.63;77.50
11523;BME280;70090;43.208;27.904;2023-05-22T07:36:43;100570.16;;;22.75;78.48
11523;BME280;70090;43.208;27.904;2023-05-22T07:39:10;100572.97;;;22.75;76.06
11523;BME280;70090;43.208;27.904;2023-05-22T07:41:37;100572.81;;;23.00;74.91
11523;BME280;70090;43.208;27.904;2023-05-22T07:44:04;100571.63;;;22.89;70.71
11523;BME280;70090;43.208;27.904;2023-05-22T07:46:31;100564.94;;;22.86;73.54
11523;BME280;70090;43.208;27.904;2023-05-22T07:49:01;100561.81;;;23.36;72.63
11523;BME280;70090;43.208;27.904;2023-05-22T07:51:27;100561.88;;;23.54;68.33
11523;BME280;70090;43.208;27.904;2023-05-22T07:53:55;100566.25;;;23.55;66.00
11523;BME280;70090;43.208;27.904;2023-05-22T07:56:22;100552.38;;;23.60;66.09
11523;BME280;70090;43.208;27.904;2023-05-22T07:58:50;100547.06;;;23.93;66.22
11523;BME280;70090;43.208;27.904;2023-05-22T08:01:17;100550.56;;;24.33;64.51
11523;BME280;70090;43.208;27.904;2023-05-22T08:03:43;100553.06;;;24.76;60.80
11523;BME280;70090;43.208;27.904;2023-05-22T08:06:12;100553.63;;;25.07;59.07
11523;BME280;70090;43.208;27.904;2023-05-22T08:08:40;100544.38;;;25.15;56.64
11523;BME280;70090;43.208;27.904;2023-05-22T08:11:07;100550.47;;;25.23;55.37
11523;BME280;70090;43.208;27.904;2023-05-22T08:13:34;100547.03;;;25.19;54.68
11523;BME280;70090;43.208;27.904;2023-05-22T08:16:03;100550.31;;;25.17;54.31
11523;BME280;70090;43.208;27.904;2023-05-22T08:18:30;100537.06;;;25.00;55.11
11523;BME280;70090;43.208;27.904;2023-05-22T08:20:57;100548.66;;;24.93;55.02
11523;BME280;70090;43.208;27.904;2023-05-22T08:23:25;100545.06;;;24.83;55.93
11523;BME280;70090;43.208;27.904;2023-05-22T08:25:52;100557.59;;;24.73;56.43
11523;BME280;70090;43.208;27.904;2023-05-22T08:28:19;100549.00;;;24.68;57.43
11523;BME280;70090;43.208;27.904;2023-05-22T08:30:46;100563.69;;;24.72;57.42
11523;BME280;70090;43.208;27.904;2023-05-22T08:33:13;100557.41;;;24.50;56.93
11523;BME280;70090;43.208;27.904;2023-05-22T08:35:40;100556.50;;;24.35;58.42
11523;BME280;70090;43.208;27.904;2023-05-22T08:38:07;100562.47;;;24.55;59.44
11523;BME280;70090;43.208;27.904;2023-05-22T08:40:36;100553.38;;;24.78;58.06
11523;BME280;70090;43.208;27.904;2023-05-22T08:43:04;100555.53;;;25.01;57.16
11523;BME280;70090;43.208;27.904;2023-05-22T08:45:32;100563.03;;;24.95;56.97
11523;BME280;70090;43.208;27.904;2023-05-22T08:48:02;100549.19;;;25.33;58.33
11523;BME280;70090;43.208;27.904;2023-05-22T08:50:30;100558.81;;;25.82;56.96
11523;BME280;70090;43.208;27.904;2023-05-22T08:52:59;100550.28;;;26.23;54.62
11523;BME280;70090;43.208;27.904;2023-05-22T08:55:27;100545.09;;;26.45;53.95
11523;BME280;70090;43.208;27.904;2023-05-22T08:57:56;100547.72;;;26.72;53.01
11523;BME280;70090;43.208;27.904;2023-05-22T09:00:24;100544.81;;;26.81;52.16
11523;BME280;70090;43.208;27.904;2023-05-22T09:02:51;100537.78;;;26.77;51.39
11523;BME280;70090;43.208;27.904;2023-05-22T09:05:20;100535.66;;;26.48;52.67
11523;BME280;70090;43.208;27.904;2023-05-22T09:07:51;100543.66;;;26.50;52.57
11523;BME280;70090;43.208;27.904;2023-05-22T09:10:18;100539.97;;;26.20;52.86
11523;BME280;70090;43.208;27.904;2023-05-22T09:13:03;100540.88;;;26.03;54.06
11523;BME280;70090;43.208;27.904;2023-05-22T09:15:32;100539.72;;;26.09;54.71
11523;BME280;70090;43.208;27.904;2023-05-22T09:17:59;100545.41;;;26.00;54.55
11523;BME280;70090;43.208;27.904;2023-05-22T09:20:27;100542.47;;;25.95;54.63
11523;BME280;70090;43.208;27.904;2023-05-22T09:22:54;100540.56;;;25.69;54.99
11523;BME280;70090;43.208;27.904;2023-05-22T09:25:21;100528.81;;;25.38;56.80
11523;BME280;70090;43.208;27.904;2023-05-22T09:27:48;100541.06;;;25.17;58.23
11523;BME280;70090;43.208;27.904;2023-05-22T09:30:16;100527.97;;;25.05;59.26
11523;BME280;70090;43.208;27.904;2023-05-22T09:32:44;100525.72;;;25.27;59.65
11523;BME280;70090;43.208;27.904;2023-05-22T09:35:11;100525.16;;;25.55;57.57
11523;BME280;70090;43.208;27.904;2023-05-22T09:37:39;100523.97;;;25.71;56.19
11523;BME280;70090;43.208;27.904;2023-05-22T09:40:07;100518.94;;;25.75;56.12
11523;BME280;70090;43.208;27.904;2023-05-22T09:42:36;100520.16;;;25.83;56.49
11523;BME280;70090;43.208;27.904;2023-05-22T09:45:04;100518.25;;;25.88;55.88
11523;BME280;70090;43.208;27.904;2023-05-22T09:47:33;100529.25;;;25.77;56.43
11523;BME280;70090;43.208;27.904;2023-05-22T09:50:02;100530.31;;;25.57;57.68
11523;BME280;70090;43.208;27.904;2023-05-22T09:52:32;100524.06;;;25.53;59.41
11523;BME280;70090;43.208;27.904;2023-05-22T09:55:01;100529.72;;;25.53;59.77
11523;BME280;70090;43.208;27.904;2023-05-22T09:57:30;100520.28;;;25.56;60.16
11523;BME280;70090;43.208;27.904;2023-05-22T09:59:58;100523.78;;;25.51;60.32
11523;BME280;70090;43.208;27.904;2023-05-22T10:02:27;100539.72;;;25.54;61.08
11523;BME280;70090;43.208;27.904;2023-05-22T10:04:55;100537.22;;;25.47;61.82
11523;BME280;70090;43.208;27.904;2023-05-22T10:07:34;100540.94;;;25.20;63.20
11523;BME280;70090;43.208;27.904;2023-05-22T10:10:05;100553.81;;;24.85;66.09
11523;BME280;70090;43.208;27.904;2023-05-22T10:12:39;100548.06;;;24.71;68.46
11523;BME280;70090;43.208;27.904;2023-05-22T10:15:08;100545.25;;;24.44;70.24
11523;BME280;70090;43.208;27.904;2023-05-22T10:17:37;100535.53;;;24.27;73.47
11523;BME280;70090;43.208;27.904;2023-05-22T10:20:08;100534.28;;;24.28;75.22
11523;BME280;70090;43.208;27.904;2023-05-22T10:22:36;100533.34;;;24.40;74.91
11523;BME280;70090;43.208;27.904;2023-05-22T10:25:04;100525.53;;;24.17;76.62
11523;BME280;70090;43.208;27.904;2023-05-22T10:27:31;100532.53;;;24.03;78.01
11523;BME280;70090;43.208;27.904;2023-05-22T10:30:07;100532.47;;;23.76;80.38
11523;BME280;70090;43.208;27.904;2023-05-22T10:32:39;100539.53;;;23.90;82.33
11523;BME280;70090;43.208;27.904;2023-05-22T10:35:16;100543.19;;;24.08;82.57
11523;BME280;70090;43.208;27.904;2023-05-22T10:37:48;100545.53;;;24.01;82.65
11523;BME280;70090;43.208;27.904;2023-05-22T10:40:20;100553.03;;;23.73;84.20
11523;BME280;70090;43.208;27.904;2023-05-22T10:42:56;100557.78;;;23.37;86.96
11523;BME280;70090;43.208;27.904;2023-05-22T10:45:25;100562.09;;;23.07;90.55
11523;BME280;70090;43.208;27.904;2023-05-22T10:48:01;100551.41;;;22.72;96.21
11523;BME280;70090;43.208;27.904;2023-05-22T10:50:29;100558.41;;;22.34;100.00
11523;BME280;70090;43.208;27.904;2023-05-22T10:53:18;100553.22;;;21.98;100.00
11523;BME280;70090;43.208;27.904;2023-05-22T10:55:46;100551.25;;;21.86;100.00
11523;BME280;70090;43.208;27.904;2023-05-22T10:58:14;100559.56;;;21.77;100.00
11523;BME280;70090;43.208;27.904;2023-05-22T11:00:41;100547.19;;;21.87;100.00
11523;BME280;70090;43.208;27.904;2023-05-22T11:03:08;100554.63;;;22.28;99.53
11523;BME280;70090;43.208;27.904;2023-05-22T11:05:38;100547.38;;;22.73;95.54
11523;BME280;70090;43.208;27.904;2023-05-22T11:08:33;100537.56;;;22.99;91.26
11523;BME280;70090;43.208;27.904;2023-05-22T11:11:09;100542.94;;;22.85;91.87
11523;BME280;70090;43.208;27.904;2023-05-22T11:13:37;100540.84;;;22.76;91.31
11523;BME280;70090;43.208;27.904;2023-05-22T11:16:04;100544.78;;;22.79;91.45
11523;BME280;70090;43.208;27.904;2023-05-22T11:18:31;100539.94;;;23.01;91.36
11523;BME280;70090;43.208;27.904;2023-05-22T11:20:59;100535.81;;;23.44;87.70
11523;BME280;70090;43.208;27.904;2023-05-22T11:23:26;100522.88;;;23.95;85.93
11523;BME280;70090;43.208;27.904;2023-05-22T11:25:54;100522.41;;;24.24;80.78
11523;BME280;70090;43.208;27.904;2023-05-22T11:28:21;100535.50;;;24.09;80.14
11523;BME280;70090;43.208;27.904;2023-05-22T11:30:49;100535.59;;;23.78;81.98
11523;BME280;70090;43.208;27.904;2023-05-22T11:33:17;100533.53;;;23.79;84.37
11523;BME280;70090;43.208;27.904;2023-05-22T11:35:46;100532.69;;;23.91;84.72
11523;BME280;70090;43.208;27.904;2023-05-22T11:38:18;100529.75;;;24.30;84.75
11523;BME280;70090;43.208;27.904;2023-05-22T11:40:45;100531.63;;;24.42;83.77
11523;BME280;70090;43.208;27.904;2023-05-22T11:43:27;100528.34;;;24.89;82.46
11523;BME280;70090;43.208;27.904;2023-05-22T11:45:54;100530.91;;;25.28;79.38
11523;BME280;70090;43.208;27.904;2023-05-22T11:48:27;100526.31;;;25.40;77.63
11523;BME280;70090;43.208;27.904;2023-05-22T11:50:55;100525.13;;;25.14;78.39
11523;BME280;70090;43.208;27.904;2023-05-22T11:53:24;100528.25;;;25.25;78.76
11523;BME280;70090;43.208;27.904;2023-05-22T11:55:51;100512.59;;;25.24;78.15
11523;BME280;70090;43.208;27.904;2023-05-22T11:58:20;100513.16;;;25.37;78.27
11523;BME280;70090;43.208;27.904;2023-05-22T12:00:47;100509.22;;;25.43;76.95
11523;BME280;70090;43.208;27.904;2023-05-22T12:03:14;100510.72;;;25.30;77.21
11523;BME280;70090;43.208;27.904;2023-05-22T12:05:44;100510.34;;;25.37;77.66
11523;BME280;70090;43.208;27.904;2023-05-22T12:08:12;100505.38;;;25.32;78.06
11523;BME280;70090;43.208;27.904;2023-05-22T12:10:46;100509.00;;;25.56;78.17
11523;BME280;70090;43.208;27.904;2023-05-22T12:13:21;100511.25;;;25.52;77.72
11523;BME280;70090;43.208;27.904;2023-05-22T12:15:48;100509.56;;;25.45;76.12
11523;BME280;70090;43.208;27.904;2023-05-22T12:18:17;100510.44;;;25.51;76.83
11523;BME280;70090;43.208;27.904;2023-05-22T12:20:43;100496.59;;;25.62;75.12
11523;BME280;70090;43.208;27.904;2023-05-22T12:23:11;100507.22;;;25.99;71.89
11523;BME280;70090;43.208;27.904;2023-05-22T12:25:37;100499.41;;;25.94;69.32
11523;BME280;70090;43.208;27.904;2023-05-22T12:28:06;100506.97;;;25.88;69.72
11523;BME280;70090;43.208;27.904;2023-05-22T12:30:42;100514.69;;;26.02;70.09
11523;BME280;70090;43.208;27.904;2023-05-22T12:33:12;100507.59;;;25.92;71.12
11523;BME280;70090;43.208;27.904;2023-05-22T12:35:40;100493.19;;;25.17;74.62
11523;BME280;70090;43.208;27.904;2023-05-22T12:38:07;100509.75;;;24.73;78.73
11523;BME280;70090;43.208;27.904;2023-05-22T12:40:34;100512.56;;;24.64;80.06
11523;BME280;70090;43.208;27.904;2023-05-22T12:43:01;100511.47;;;24.62;78.64
11523;BME280;70090;43.208;27.904;2023-05-22T12:45:29;100502.19;;;24.88;73.90
11523;BME280;70090;43.208;27.904;2023-05-22T12:47:56;100513.06;;;25.22;70.20
11523;BME280;70090;43.208;27.904;2023-05-22T12:50:23;100514.31;;;25.63;67.44